createdAt,value
2019-03-22T00:00:46.538Z,21.60
2019-03-22T00:01:51.928Z,20.43
2019-03-22T00:02:57.443Z,21.42
2019-03-22T00:04:02.799Z,20.30
2019-03-22T00:05:09.522Z,19.80
2019-03-22T00:06:14.857Z,21.12
2019-03-22T00:07:20.317Z,20.88
2019-03-22T00:08:25.751Z,21.75
2019-03-22T00:09:31.273Z,20.25
2019-03-22T00:10:36.726Z,19.70
2019-03-22T00:11:42.084Z,21.95
2019-03-22T00:12:47.560Z,20.77
2019-03-22T00:13:53.067Z,20.37
2019-03-22T00:14:58.433Z,21.15
2019-03-22T00:16:03.923Z,22.13
2019-03-22T00:17:09.434Z,22.37
2019-03-22T00:18:14.830Z,22.30
2019-03-22T00:19:20.208Z,23.47
2019-03-22T00:20:25.680Z,22.25
2019-03-22T00:21:31.215Z,21.77
2019-03-22T00:22:36.651Z,22.58
2019-03-22T00:23:42.006Z,21.57
2019-03-22T00:24:47.360Z,21.12
2019-03-22T00:25:52.741Z,20.35
2019-03-22T00:26:58.261Z,20.97
2019-03-22T00:28:03.621Z,21.07
2019-03-22T00:29:09.211Z,21.37
2019-03-22T00:30:14.619Z,21.30
2019-03-22T00:31:20.139Z,18.27
2019-03-22T00:32:25.715Z,19.50
2019-03-22T00:33:32.676Z,19.77
2019-03-22T00:34:38.335Z,18.82
2019-03-22T00:35:43.736Z,19.17
2019-03-22T00:36:49.141Z,19.52
2019-03-22T00:37:54.571Z,18.95
2019-03-22T00:39:00.046Z,19.90
2019-03-22T00:40:05.588Z,19.35
2019-03-22T00:41:10.933Z,18.52
2019-03-22T00:42:16.501Z,17.12
2019-03-22T00:43:21.992Z,17.80
2019-03-22T00:44:27.375Z,16.07
2019-03-22T00:45:35.813Z,15.15
2019-03-22T00:46:41.144Z,14.47
2019-03-22T00:47:46.600Z,16.10
2019-03-22T00:48:52.035Z,15.95
2019-03-22T00:49:57.458Z,15.78
2019-03-22T00:51:02.765Z,14.43
2019-03-22T00:52:08.276Z,15.35
2019-03-22T00:53:13.968Z,15.13
2019-03-22T00:54:19.460Z,15.08
2019-03-22T00:55:24.907Z,15.65
2019-03-22T00:56:30.288Z,15.50
2019-03-22T00:57:38.442Z,14.05
2019-03-22T00:58:43.897Z,13.55
2019-03-22T00:59:49.431Z,14.25
2019-03-22T01:00:54.966Z,14.05
2019-03-22T01:02:00.420Z,14.20
2019-03-22T01:03:05.825Z,14.28
2019-03-22T01:04:11.180Z,15.15
2019-03-22T01:05:17.811Z,14.03
2019-03-22T01:06:23.222Z,13.93
2019-03-22T01:07:28.701Z,13.05
2019-03-22T01:08:34.164Z,13.40
2019-03-22T01:09:39.696Z,12.23
2019-03-22T01:10:45.172Z,13.32
2019-03-22T01:11:50.512Z,13.38
2019-03-22T01:12:56.112Z,12.43
2019-03-22T01:14:01.628Z,13.20
2019-03-22T01:15:07.968Z,13.20
2019-03-22T01:16:13.496Z,13.72
2019-03-22T01:17:18.876Z,13.25
2019-03-22T01:18:24.181Z,14.25
2019-03-22T01:19:29.765Z,12.53
2019-03-22T01:20:35.269Z,13.70
2019-03-22T01:21:40.680Z,13.32
2019-03-22T01:22:46.124Z,11.45
2019-03-22T01:23:51.617Z,12.68
2019-03-22T01:24:57.156Z,14.03
2019-03-22T01:26:02.561Z,12.10
2019-03-22T01:27:08.060Z,12.07
2019-03-22T01:28:13.604Z,12.60
2019-03-22T01:29:19.217Z,12.03
2019-03-22T01:30:24.557Z,12.43
2019-03-22T01:31:30.008Z,11.50
2019-03-22T01:32:35.764Z,11.22
2019-03-22T01:34:00.069Z,10.50
2019-03-22T01:35:05.789Z,11.00
2019-03-22T01:36:11.292Z,11.40
2019-03-22T01:37:16.686Z,11.70
2019-03-22T01:38:22.096Z,11.25
2019-03-22T01:39:27.637Z,11.15
2019-03-22T01:40:32.998Z,11.57
2019-03-22T01:41:38.526Z,11.60
2019-03-22T01:42:44.168Z,11.68
2019-03-22T01:43:49.616Z,11.65
2019-03-22T01:44:55.152Z,11.57
2019-03-22T01:46:00.629Z,11.63
2019-03-22T01:47:06.252Z,11.80
2019-03-22T01:48:11.717Z,11.28
2019-03-22T01:49:17.037Z,11.65
2019-03-22T01:50:22.466Z,11.18
2019-03-22T01:51:27.941Z,11.75
2019-03-22T01:52:33.318Z,11.73
2019-03-22T01:53:38.643Z,12.00
2019-03-22T01:54:44.072Z,11.50
2019-03-22T01:55:49.513Z,12.23
2019-03-22T01:56:54.916Z,11.88
2019-03-22T01:58:00.283Z,11.70
2019-03-22T01:59:05.810Z,12.10
2019-03-22T02:00:12.491Z,11.83
2019-03-22T02:01:17.972Z,11.90
2019-03-22T02:02:23.324Z,12.05
2019-03-22T02:03:28.836Z,12.25
2019-03-22T02:04:34.308Z,12.07
2019-03-22T02:05:39.770Z,12.03
2019-03-22T02:06:45.068Z,11.97
2019-03-22T02:07:50.551Z,11.53
2019-03-22T02:08:56.007Z,11.30
2019-03-22T02:10:01.451Z,11.85
2019-03-22T02:11:07.008Z,11.97
2019-03-22T02:12:12.344Z,10.75
2019-03-22T02:13:17.703Z,11.75
2019-03-22T02:14:23.269Z,11.05
2019-03-22T02:15:28.720Z,10.10
2019-03-22T02:16:34.067Z,10.82
2019-03-22T02:17:39.400Z,10.45
2019-03-22T02:18:44.860Z,11.20
2019-03-22T02:19:50.272Z,11.03
2019-03-22T02:20:55.709Z,12.30
2019-03-22T02:22:01.197Z,11.85
2019-03-22T02:23:06.552Z,11.60
2019-03-22T02:24:12.008Z,12.45
2019-03-22T02:25:17.637Z,12.25
2019-03-22T02:26:22.988Z,12.60
2019-03-22T02:27:28.417Z,12.75
2019-03-22T02:28:33.875Z,12.82
2019-03-22T02:29:39.286Z,13.45
2019-03-22T02:30:44.684Z,13.80
2019-03-22T02:31:50.042Z,13.15
2019-03-22T02:32:55.479Z,14.25
2019-03-22T02:34:01.044Z,14.35
2019-03-22T02:35:07.211Z,14.33
2019-03-22T02:36:12.825Z,14.25
2019-03-22T02:37:18.338Z,15.38
2019-03-22T02:38:23.686Z,13.35
2019-03-22T02:39:29.315Z,14.40
2019-03-22T02:40:34.994Z,15.20
2019-03-22T02:41:40.544Z,15.65
2019-03-22T02:42:46.084Z,15.25
2019-03-22T02:43:54.538Z,15.65
2019-03-22T02:44:58.918Z,15.80
2019-03-22T02:46:04.456Z,16.35
2019-03-22T02:47:10.080Z,16.55
2019-03-22T02:48:16.907Z,16.87
2019-03-22T02:49:22.505Z,16.48
2019-03-22T02:50:27.975Z,17.32
2019-03-22T02:51:33.454Z,17.12
2019-03-22T02:52:38.978Z,17.67
2019-03-22T02:53:44.400Z,16.70
2019-03-22T02:54:49.724Z,17.62
2019-03-22T02:55:55.282Z,18.35
2019-03-22T02:57:00.749Z,17.95
2019-03-22T02:58:19.681Z,18.82
2019-03-22T02:59:13.262Z,19.40
2019-03-22T03:00:19.018Z,19.50
2019-03-22T03:01:24.792Z,19.95
2019-03-22T03:02:30.292Z,19.45
2019-03-22T03:03:35.740Z,19.48
2019-03-22T03:04:41.200Z,20.30
2019-03-22T03:05:46.737Z,20.35
2019-03-22T03:06:52.397Z,19.77
2019-03-22T03:07:57.897Z,19.87
2019-03-22T03:09:04.281Z,20.48
2019-03-22T03:10:11.007Z,20.08
2019-03-22T03:11:16.573Z,19.55
2019-03-22T03:12:22.089Z,19.45
2019-03-22T03:13:27.568Z,19.15
2019-03-22T03:14:33.088Z,20.10
2019-03-22T03:15:38.645Z,18.98
2019-03-22T03:16:44.176Z,18.57
2019-03-22T03:17:49.558Z,18.77
2019-03-22T03:18:54.989Z,20.10
2019-03-22T03:20:00.454Z,19.48
2019-03-22T03:21:06.054Z,20.17
2019-03-22T03:22:11.524Z,18.60
2019-03-22T03:23:16.989Z,20.30
2019-03-22T03:24:22.537Z,19.50
2019-03-22T03:25:28.107Z,19.25
2019-03-22T03:26:33.785Z,19.62
2019-03-22T03:27:39.261Z,20.50
2019-03-22T03:28:44.933Z,19.17
2019-03-22T03:29:50.498Z,19.10
2019-03-22T03:30:55.909Z,18.87
2019-03-22T03:32:01.635Z,20.08
2019-03-22T03:33:07.192Z,18.50
2019-03-22T03:34:12.605Z,18.52
2019-03-22T03:35:18.349Z,18.92
2019-03-22T03:36:24.063Z,17.42
2019-03-22T03:37:29.495Z,18.57
2019-03-22T03:38:34.849Z,19.80
2019-03-22T03:39:40.380Z,18.85
2019-03-22T03:40:45.837Z,17.90
2019-03-22T03:41:51.429Z,19.77
2019-03-22T03:42:57.158Z,18.98
2019-03-22T03:44:02.689Z,19.35
2019-03-22T03:45:10.704Z,18.23
2019-03-22T03:46:16.106Z,19.60
2019-03-22T03:47:21.506Z,20.12
2019-03-22T03:48:27.050Z,20.02
2019-03-22T03:49:32.577Z,20.40
2019-03-22T03:50:38.266Z,20.85
2019-03-22T03:51:43.792Z,20.80
2019-03-22T03:52:49.186Z,20.20
2019-03-22T03:53:54.782Z,18.42
2019-03-22T03:55:00.536Z,19.70
2019-03-22T03:56:06.279Z,19.62
2019-03-22T03:57:11.749Z,19.45
2019-03-22T03:58:17.309Z,20.27
2019-03-22T03:59:22.801Z,18.82
2019-03-22T04:00:28.465Z,21.40
2019-03-22T04:01:34.041Z,20.17
2019-03-22T04:02:39.599Z,20.80
2019-03-22T04:03:45.006Z,20.30
2019-03-22T04:04:50.433Z,21.90
2019-03-22T04:05:55.873Z,20.72
2019-03-22T04:07:01.398Z,21.15
2019-03-22T04:08:07.105Z,21.05
2019-03-22T04:09:12.432Z,21.70
2019-03-22T04:10:17.986Z,20.90
2019-03-22T04:11:23.428Z,22.62
2019-03-22T04:12:28.803Z,20.40
2019-03-22T04:13:34.217Z,21.97
2019-03-22T04:14:39.851Z,20.25
2019-03-22T04:15:45.619Z,20.20
2019-03-22T04:16:51.045Z,20.82
2019-03-22T04:17:56.482Z,21.05
2019-03-22T04:19:02.031Z,20.68
2019-03-22T04:20:07.511Z,19.73
2019-03-22T04:21:12.945Z,20.05
2019-03-22T04:22:18.433Z,21.50
2019-03-22T04:23:23.901Z,21.85
2019-03-22T04:24:29.333Z,21.57
2019-03-22T04:25:34.875Z,20.52
2019-03-22T04:26:40.489Z,20.30
2019-03-22T04:27:46.132Z,20.32
2019-03-22T04:29:06.882Z,20.90
2019-03-22T04:29:59.900Z,20.92
2019-03-22T04:31:05.282Z,20.97
2019-03-22T04:32:10.933Z,21.37
2019-03-22T04:33:16.344Z,20.97
2019-03-22T04:34:21.821Z,22.55
2019-03-22T04:35:27.289Z,20.62
2019-03-22T04:36:32.875Z,20.72
2019-03-22T04:37:38.845Z,20.97
2019-03-22T04:38:44.328Z,21.82
2019-03-22T04:39:49.886Z,22.48
2019-03-22T04:40:55.325Z,21.52
2019-03-22T04:42:00.824Z,22.85
2019-03-22T04:43:06.336Z,22.13
2019-03-22T04:44:12.052Z,22.70
2019-03-22T04:45:17.956Z,20.80
2019-03-22T04:46:24.963Z,21.48
2019-03-22T04:47:30.992Z,21.37
2019-03-22T04:48:38.143Z,21.70
2019-03-22T04:49:44.904Z,25.95
2019-03-22T04:50:52.080Z,26.05
2019-03-22T04:51:57.786Z,45.15
2019-03-22T04:53:03.917Z,43.60
2019-03-22T04:54:10.344Z,25.37
2019-03-22T04:55:16.630Z,63.60
2019-03-22T04:56:24.737Z,30.60
2019-03-22T04:57:30.875Z,23.65
2019-03-22T04:58:38.297Z,23.38
2019-03-22T04:59:45.571Z,22.77
2019-03-22T05:00:53.796Z,20.92
2019-03-22T05:02:02.518Z,26.23
2019-03-22T05:03:09.231Z,22.90
2019-03-22T05:04:15.584Z,23.45
2019-03-22T05:05:21.873Z,21.50
2019-03-22T05:06:27.964Z,20.37
2019-03-22T05:07:33.823Z,17.92
2019-03-22T05:08:41.402Z,19.12
2019-03-22T05:09:47.610Z,21.50
2019-03-22T05:10:54.956Z,25.57
2019-03-22T05:12:03.925Z,23.30
2019-03-22T05:13:12.633Z,23.85
2019-03-22T05:14:20.378Z,20.70
2019-03-22T05:15:26.105Z,24.92
2019-03-22T05:16:33.929Z,23.77
2019-03-22T05:17:39.505Z,21.70
2019-03-22T05:18:48.606Z,19.30
2019-03-22T05:19:56.999Z,18.87
2019-03-22T05:21:03.757Z,18.25
2019-03-22T05:22:11.969Z,18.27
2019-03-22T05:23:20.158Z,18.05
2019-03-22T05:24:28.529Z,17.42
2019-03-22T05:25:35.580Z,19.07
2019-03-22T05:26:42.416Z,18.05
2019-03-22T05:27:50.575Z,17.73
2019-03-22T05:28:56.298Z,16.27
2019-03-22T05:30:03.568Z,16.20
2019-03-22T05:32:13.645Z,18.17
2019-03-22T05:33:19.097Z,15.95
2019-03-22T05:34:24.466Z,17.60
2019-03-22T05:35:30.059Z,17.62
2019-03-22T05:36:35.651Z,16.42
2019-03-22T05:37:41.156Z,17.82
2019-03-22T05:38:46.844Z,20.05
2019-03-22T05:39:52.463Z,20.12
2019-03-22T05:40:57.946Z,17.80
2019-03-22T05:42:03.331Z,17.23
2019-03-22T05:43:08.913Z,17.97
2019-03-22T05:44:14.445Z,18.77
2019-03-22T05:45:19.832Z,17.90
2019-03-22T05:46:25.331Z,18.10
2019-03-22T05:47:30.807Z,17.80
2019-03-22T05:48:36.115Z,18.27
2019-03-22T05:49:41.609Z,18.87
2019-03-22T05:50:47.074Z,17.87
2019-03-22T05:51:52.472Z,17.05
2019-03-22T05:52:57.821Z,16.50
2019-03-22T05:54:03.248Z,15.65
2019-03-22T05:55:08.898Z,17.52
2019-03-22T05:56:14.289Z,16.87
2019-03-22T05:57:19.752Z,16.00
2019-03-22T05:58:25.192Z,16.17
2019-03-22T05:59:41.573Z,15.20
2019-03-22T06:00:37.926Z,18.07
2019-03-22T06:01:45.378Z,16.93
2019-03-22T06:02:50.489Z,18.15
2019-03-22T06:03:55.864Z,17.95
2019-03-22T06:05:01.311Z,17.77
2019-03-22T06:06:06.953Z,16.67
2019-03-22T06:07:12.814Z,17.07
2019-03-22T06:08:18.407Z,16.02
2019-03-22T06:09:23.926Z,15.50
2019-03-22T06:10:29.444Z,17.40
2019-03-22T06:11:35.051Z,16.93
2019-03-22T06:12:40.573Z,14.60
2019-03-22T06:13:45.980Z,15.32
2019-03-22T06:14:52.029Z,16.48
2019-03-22T06:15:57.624Z,15.50
2019-03-22T06:17:03.144Z,15.60
2019-03-22T06:18:08.621Z,15.43
2019-03-22T06:19:14.151Z,17.20
2019-03-22T06:20:19.716Z,15.25
2019-03-22T06:21:25.115Z,18.70
2019-03-22T06:22:30.752Z,16.67
2019-03-22T06:23:36.339Z,20.50
2019-03-22T06:24:41.870Z,15.65
2019-03-22T06:25:47.467Z,15.88
2019-03-22T06:26:53.865Z,14.75
2019-03-22T06:28:00.349Z,16.65
2019-03-22T06:29:06.090Z,14.70
2019-03-22T06:30:12.178Z,14.40
2019-03-22T06:31:17.776Z,14.07
2019-03-22T06:32:24.121Z,13.30
2019-03-22T06:33:29.515Z,13.10
2019-03-22T06:34:34.964Z,15.28
2019-03-22T06:35:40.344Z,13.93
2019-03-22T06:36:45.676Z,14.70
2019-03-22T06:37:50.964Z,14.25
2019-03-22T06:38:56.924Z,13.45
2019-03-22T06:40:02.381Z,14.13
2019-03-22T06:41:07.885Z,14.05
2019-03-22T06:42:13.368Z,14.78
2019-03-22T06:43:18.803Z,13.72
2019-03-22T06:44:24.336Z,13.15
2019-03-22T06:45:29.844Z,14.60
2019-03-22T06:46:35.289Z,14.40
2019-03-22T06:47:40.689Z,15.08
2019-03-22T06:48:46.133Z,15.83
2019-03-22T06:49:51.524Z,15.15
2019-03-22T06:50:58.308Z,14.83
2019-03-22T06:52:03.656Z,15.63
2019-03-22T06:53:09.052Z,14.38
2019-03-22T06:54:14.536Z,16.65
2019-03-22T06:55:20.008Z,14.50
2019-03-22T06:56:25.644Z,14.35
2019-03-22T06:57:31.169Z,14.90
2019-03-22T06:58:36.617Z,14.50
2019-03-22T06:59:42.050Z,14.10
2019-03-22T07:00:47.602Z,13.35
2019-03-22T07:01:53.160Z,16.57
2019-03-22T07:02:58.910Z,16.57
2019-03-22T07:04:04.790Z,15.10
2019-03-22T07:05:10.314Z,14.40
2019-03-22T07:06:16.010Z,14.80
2019-03-22T07:07:21.600Z,15.10
2019-03-22T07:08:27.088Z,14.43
2019-03-22T07:09:32.598Z,13.85
2019-03-22T07:10:38.366Z,13.58
2019-03-22T07:11:43.955Z,14.18
2019-03-22T07:12:49.497Z,19.48
2019-03-22T07:13:55.086Z,13.22
2019-03-22T07:15:00.720Z,13.15
2019-03-22T07:16:06.476Z,13.03
2019-03-22T07:17:12.103Z,13.53
2019-03-22T07:18:17.547Z,14.20
2019-03-22T07:19:22.869Z,13.55
2019-03-22T07:20:28.297Z,12.82
2019-03-22T07:21:35.118Z,14.20
2019-03-22T07:22:40.470Z,14.65
2019-03-22T07:23:45.933Z,13.90
2019-03-22T07:24:51.245Z,13.70
2019-03-22T07:25:56.634Z,14.78
2019-03-22T07:27:01.996Z,14.95
2019-03-22T07:28:07.296Z,14.68
2019-03-22T07:29:12.590Z,13.68
2019-03-22T07:30:19.299Z,13.93
2019-03-22T07:31:24.896Z,13.50
2019-03-22T07:32:30.170Z,14.13
2019-03-22T07:33:35.407Z,13.98
2019-03-22T07:34:40.667Z,21.62
2019-03-22T07:35:45.967Z,36.50
2019-03-22T07:36:51.244Z,20.72
2019-03-22T07:37:56.497Z,15.60
2019-03-22T07:39:01.840Z,12.30
2019-03-22T07:40:07.895Z,12.43
2019-03-22T07:41:13.204Z,13.43
2019-03-22T07:42:18.589Z,12.10
2019-03-22T07:43:23.950Z,12.00
2019-03-22T07:44:29.279Z,13.55
2019-03-22T07:45:34.547Z,13.62
2019-03-22T07:46:39.858Z,13.00
2019-03-22T07:47:45.106Z,13.58
2019-03-22T07:48:50.369Z,13.62
2019-03-22T07:49:55.817Z,15.00
2019-03-22T07:51:01.163Z,13.40
2019-03-22T07:52:06.588Z,12.25
2019-03-22T07:53:11.857Z,13.00
2019-03-22T07:54:17.137Z,12.13
2019-03-22T07:55:22.438Z,11.65
2019-03-22T07:56:27.752Z,12.03
2019-03-22T07:57:33.079Z,10.68
2019-03-22T07:58:38.362Z,10.58
2019-03-22T07:59:43.622Z,10.60
2019-03-22T08:00:48.933Z,10.55
2019-03-22T08:01:54.409Z,11.08
2019-03-22T08:02:59.683Z,11.60
2019-03-22T08:04:05.019Z,10.32
2019-03-22T08:05:10.336Z,10.53
2019-03-22T08:06:15.748Z,9.28
2019-03-22T08:07:22.226Z,10.25
2019-03-22T08:08:27.587Z,10.18
2019-03-22T08:09:33.069Z,10.08
2019-03-22T08:10:38.472Z,9.65
2019-03-22T08:11:43.909Z,8.05
2019-03-22T08:12:49.358Z,10.15
2019-03-22T08:13:54.940Z,8.95
2019-03-22T08:15:00.555Z,9.88
2019-03-22T08:16:09.001Z,10.00
2019-03-22T08:17:14.484Z,10.00
2019-03-22T08:18:19.973Z,10.25
2019-03-22T08:19:25.493Z,9.45
2019-03-22T08:20:31.312Z,8.75
2019-03-22T08:21:36.852Z,11.55
2019-03-22T08:22:43.714Z,10.30
2019-03-22T08:23:49.096Z,9.10
2019-03-22T08:24:54.593Z,10.55
2019-03-22T08:26:00.041Z,10.20
2019-03-22T08:27:05.779Z,9.58
2019-03-22T08:28:11.365Z,9.63
2019-03-22T08:29:16.947Z,9.90
2019-03-22T08:30:22.722Z,9.35
2019-03-22T08:31:28.283Z,8.78
2019-03-22T08:32:34.210Z,8.80
2019-03-22T08:33:39.997Z,8.85
2019-03-22T08:34:47.641Z,8.40
2019-03-22T08:35:53.397Z,8.30
2019-03-22T08:37:01.437Z,9.25
2019-03-22T08:38:07.946Z,9.80
2019-03-22T08:39:14.185Z,8.90
2019-03-22T08:40:20.981Z,9.48
2019-03-22T08:41:26.787Z,8.65
2019-03-22T08:42:34.240Z,8.93
2019-03-22T08:43:42.591Z,8.85
2019-03-22T08:44:48.040Z,8.75
2019-03-22T08:45:53.763Z,7.78
2019-03-22T08:46:59.571Z,8.30
2019-03-22T08:48:05.374Z,8.30
2019-03-22T08:49:11.187Z,9.38
2019-03-22T08:50:18.280Z,10.23
2019-03-22T08:51:23.695Z,9.20
2019-03-22T08:52:29.211Z,9.45
2019-03-22T08:53:34.819Z,15.13
2019-03-22T08:54:40.366Z,13.95
2019-03-22T08:55:48.000Z,8.68
2019-03-22T08:56:53.326Z,7.40
2019-03-22T08:57:58.892Z,8.50
2019-03-22T08:59:05.423Z,8.13
2019-03-22T09:00:11.686Z,7.85
2019-03-22T09:01:17.057Z,7.62
2019-03-22T09:02:22.524Z,7.55
2019-03-22T09:03:27.883Z,7.20
2019-03-22T09:04:33.178Z,7.00
2019-03-22T09:05:38.548Z,7.55
2019-03-22T09:06:43.973Z,8.75
2019-03-22T09:07:49.496Z,9.05
2019-03-22T09:08:54.867Z,9.70
2019-03-22T09:10:00.319Z,8.70
2019-03-22T09:11:05.852Z,8.28
2019-03-22T09:12:11.359Z,8.70
2019-03-22T09:13:16.817Z,8.00
2019-03-22T09:14:22.080Z,8.30
2019-03-22T09:15:40.256Z,8.23
2019-03-22T09:16:34.603Z,9.48
2019-03-22T09:17:40.241Z,8.50
2019-03-22T09:18:45.632Z,8.78
2019-03-22T09:19:51.256Z,8.98
2019-03-22T09:20:56.713Z,9.20
2019-03-22T09:22:02.030Z,9.18
2019-03-22T09:23:09.191Z,8.40
2019-03-22T09:24:14.624Z,8.28
2019-03-22T09:25:19.935Z,8.10
2019-03-22T09:26:27.828Z,8.50
2019-03-22T09:27:33.189Z,7.55
2019-03-22T09:28:38.513Z,7.12
2019-03-22T09:29:43.948Z,7.47
2019-03-22T09:30:49.277Z,7.37
2019-03-22T09:31:54.641Z,6.75
2019-03-22T09:33:00.021Z,6.35
2019-03-22T09:34:05.345Z,6.70
2019-03-22T09:35:10.801Z,6.35
2019-03-22T09:36:16.092Z,6.12
2019-03-22T09:37:21.649Z,5.30
2019-03-22T09:38:28.596Z,5.83
2019-03-22T09:39:34.170Z,4.90
2019-03-22T09:40:39.465Z,3.90
2019-03-22T09:41:44.809Z,4.22
2019-03-22T09:42:52.936Z,4.58
2019-03-22T09:43:57.194Z,3.42
2019-03-22T09:45:03.950Z,3.33
2019-03-22T09:46:09.540Z,3.12
2019-03-22T09:47:16.691Z,3.00
2019-03-22T09:48:22.430Z,3.33
2019-03-22T09:49:27.769Z,4.03
2019-03-22T09:50:33.703Z,3.58
2019-03-22T09:51:39.232Z,2.87
2019-03-22T09:52:44.719Z,3.17
2019-03-22T09:53:50.343Z,3.37
2019-03-22T09:54:56.350Z,2.90
2019-03-22T09:56:02.012Z,3.22
2019-03-22T09:57:08.237Z,2.67
2019-03-22T09:58:14.383Z,2.10
2019-03-22T09:59:20.463Z,2.23
2019-03-22T10:00:36.495Z,1.67
2019-03-22T10:01:42.083Z,2.30
2019-03-22T10:02:47.595Z,3.03
2019-03-22T10:03:53.621Z,3.10
2019-03-22T10:05:00.685Z,2.20
2019-03-22T10:06:07.567Z,1.77
2019-03-22T10:07:13.373Z,2.83
2019-03-22T10:08:19.573Z,2.40
2019-03-22T10:09:25.327Z,1.80
2019-03-22T10:10:30.990Z,2.03
2019-03-22T10:11:36.384Z,1.47
2019-03-22T10:12:45.020Z,1.40
2019-03-22T10:13:50.530Z,1.42
2019-03-22T10:14:56.215Z,1.30
2019-03-22T10:16:03.319Z,1.40
2019-03-22T10:17:09.204Z,1.47
2019-03-22T10:18:14.963Z,1.55
2019-03-22T10:19:20.716Z,1.43
2019-03-22T10:20:26.457Z,1.90
2019-03-22T10:21:32.116Z,2.37
2019-03-22T10:22:37.784Z,2.30
2019-03-22T10:23:43.678Z,1.85
2019-03-22T10:24:49.288Z,2.02
2019-03-22T10:25:55.226Z,2.20
2019-03-22T10:27:05.315Z,1.50
2019-03-22T10:28:11.100Z,1.50
2019-03-22T10:29:19.263Z,1.75
2019-03-22T10:30:24.708Z,2.22
2019-03-22T10:31:37.152Z,2.02
2019-03-22T10:32:37.476Z,1.85
2019-03-22T10:33:42.949Z,1.77
2019-03-22T10:34:48.478Z,1.72
2019-03-22T10:35:54.807Z,1.75
2019-03-22T10:37:00.868Z,1.98
2019-03-22T10:38:16.011Z,1.90
2019-03-22T10:39:14.974Z,2.55
2019-03-22T10:40:20.709Z,1.42
2019-03-22T10:41:26.356Z,1.50
2019-03-22T10:42:31.831Z,1.35
2019-03-22T10:43:38.494Z,4.75
2019-03-22T10:44:44.115Z,2.95
2019-03-22T10:45:49.844Z,7.60
2019-03-22T10:46:55.451Z,5.30
2019-03-22T10:48:01.100Z,3.10
2019-03-22T10:49:06.728Z,2.65
2019-03-22T10:50:12.425Z,1.35
2019-03-22T10:51:20.238Z,1.52
2019-03-22T10:52:25.087Z,1.30
2019-03-22T10:53:31.138Z,1.85
2019-03-22T10:54:36.902Z,1.25
2019-03-22T10:55:43.410Z,1.60
2019-03-22T10:56:49.169Z,1.50
2019-03-22T10:57:55.617Z,1.20
2019-03-22T10:59:02.762Z,1.57
2019-03-22T11:00:11.003Z,1.60
2019-03-22T11:01:16.681Z,2.20
2019-03-22T11:02:22.378Z,1.90
2019-03-22T11:03:28.874Z,2.25
2019-03-22T11:04:34.377Z,1.70
2019-03-22T11:05:43.029Z,1.70
2019-03-22T11:06:49.910Z,1.80
2019-03-22T11:07:55.585Z,2.77
2019-03-22T11:09:01.260Z,1.90
2019-03-22T11:10:11.195Z,1.75
2019-03-22T11:11:16.904Z,1.60
2019-03-22T11:12:22.668Z,2.15
2019-03-22T11:13:28.499Z,3.45
2019-03-22T11:14:34.152Z,1.80
2019-03-22T11:15:48.154Z,1.92
2019-03-22T11:16:47.417Z,1.92
2019-03-22T11:17:53.011Z,2.10
2019-03-22T11:19:00.529Z,2.20
2019-03-22T11:20:07.970Z,2.30
2019-03-22T11:21:13.449Z,2.27
2019-03-22T11:22:18.845Z,1.30
2019-03-22T11:23:24.218Z,1.30
2019-03-22T11:24:29.807Z,1.60
2019-03-22T11:25:35.405Z,1.43
2019-03-22T11:26:40.743Z,2.10
2019-03-22T11:27:46.247Z,1.63
2019-03-22T11:28:51.617Z,1.50
2019-03-22T11:29:57.132Z,1.67
2019-03-22T11:31:04.933Z,1.80
2019-03-22T11:32:12.914Z,1.10
2019-03-22T11:33:16.893Z,1.90
2019-03-22T11:34:22.426Z,1.50
2019-03-22T11:35:27.885Z,1.60
2019-03-22T11:36:33.338Z,1.70
2019-03-22T11:37:38.894Z,2.13
2019-03-22T11:38:44.413Z,2.07
2019-03-22T11:39:49.765Z,1.90
2019-03-22T11:40:55.365Z,1.70
2019-03-22T11:42:01.775Z,1.60
2019-03-22T11:43:08.810Z,1.60
2019-03-22T11:44:14.525Z,1.50
2019-03-22T11:45:21.295Z,1.70
2019-03-22T11:46:28.811Z,1.50
2019-03-22T11:47:34.376Z,1.63
2019-03-22T11:48:39.863Z,1.53
2019-03-22T11:49:45.536Z,1.80
2019-03-22T11:50:51.108Z,2.00
2019-03-22T11:51:56.685Z,1.67
2019-03-22T11:53:02.144Z,2.13
2019-03-22T11:54:07.692Z,1.90
2019-03-22T11:55:14.249Z,2.23
2019-03-22T11:56:19.706Z,1.90
2019-03-22T11:57:25.355Z,1.97
2019-03-22T11:58:30.924Z,1.93
2019-03-22T11:59:36.450Z,1.80
2019-03-22T12:00:41.917Z,1.47
2019-03-22T12:01:47.421Z,1.97
2019-03-22T12:02:52.965Z,1.80
2019-03-22T12:03:58.338Z,1.70
2019-03-22T12:05:04.125Z,2.22
2019-03-22T12:06:09.687Z,1.95
2019-03-22T12:07:15.159Z,1.87
2019-03-22T12:08:20.701Z,2.40
2019-03-22T12:09:26.350Z,1.67
2019-03-22T12:10:31.861Z,1.57
2019-03-22T12:11:37.364Z,1.40
2019-03-22T12:12:43.000Z,1.62
2019-03-22T12:13:48.600Z,1.77
2019-03-22T12:14:54.156Z,1.70
2019-03-22T12:15:59.645Z,1.60
2019-03-22T12:17:05.003Z,2.12
2019-03-22T12:18:10.508Z,1.90
2019-03-22T12:19:16.016Z,1.67
2019-03-22T12:20:22.244Z,1.70
2019-03-22T12:21:27.728Z,1.57
2019-03-22T12:22:33.240Z,2.00
2019-03-22T12:23:38.468Z,2.10
2019-03-22T12:24:43.795Z,2.40
2019-03-22T12:25:49.135Z,1.72
2019-03-22T12:26:54.420Z,2.80
2019-03-22T12:27:59.807Z,1.70
2019-03-22T12:29:05.633Z,1.72
2019-03-22T12:30:15.416Z,1.72
2019-03-22T12:31:20.966Z,2.27
2019-03-22T12:32:32.179Z,1.95
2019-03-22T12:33:33.666Z,1.85
2019-03-22T12:34:39.021Z,1.62
2019-03-22T12:35:44.390Z,1.62
2019-03-22T12:36:49.694Z,1.70
2019-03-22T12:37:54.969Z,2.27
2019-03-22T12:39:00.257Z,1.90
2019-03-22T12:40:06.361Z,1.45
2019-03-22T12:41:11.667Z,1.92
2019-03-22T12:42:16.938Z,1.80
2019-03-22T12:43:22.272Z,1.70
2019-03-22T12:44:27.621Z,2.00
2019-03-22T12:45:33.229Z,1.80
2019-03-22T12:46:38.492Z,1.90
2019-03-22T12:47:45.242Z,3.00
2019-03-22T12:48:50.516Z,3.00
2019-03-22T12:49:55.764Z,3.20
2019-03-22T12:51:01.149Z,4.13
2019-03-22T12:52:06.438Z,2.27
2019-03-22T12:53:11.903Z,1.57
2019-03-22T12:54:17.157Z,1.30
2019-03-22T12:55:22.699Z,1.43
2019-03-22T12:56:28.001Z,1.87
2019-03-22T12:57:33.309Z,1.50
2019-03-22T12:58:38.623Z,1.43
2019-03-22T12:59:43.911Z,1.43
2019-03-22T13:00:49.154Z,2.70
2019-03-22T13:01:54.449Z,4.30
2019-03-22T13:02:59.714Z,2.17
2019-03-22T13:04:05.027Z,2.20
2019-03-22T13:05:10.922Z,2.57
2019-03-22T13:06:16.242Z,2.00
2019-03-22T13:07:21.505Z,2.02
2019-03-22T13:08:26.759Z,1.80
2019-03-22T13:09:31.997Z,2.00
2019-03-22T13:10:37.300Z,1.90
2019-03-22T13:11:45.538Z,1.70
2019-03-22T13:12:51.492Z,3.98
2019-03-22T13:13:57.081Z,2.20
2019-03-22T13:15:02.584Z,2.15
2019-03-22T13:16:08.206Z,3.50
2019-03-22T13:17:13.777Z,2.45
2019-03-22T13:18:19.483Z,1.92
2019-03-22T13:19:24.957Z,1.82
2019-03-22T13:20:30.561Z,1.60
2019-03-22T13:21:36.227Z,2.05
2019-03-22T13:22:41.760Z,2.05
2019-03-22T13:23:47.317Z,2.05
2019-03-22T13:24:52.670Z,1.60
2019-03-22T13:25:58.047Z,1.85
2019-03-22T13:27:03.468Z,1.87
2019-03-22T13:28:08.809Z,1.80
2019-03-22T13:29:14.180Z,2.00
2019-03-22T13:30:44.349Z,1.73
2019-03-22T13:31:49.657Z,2.00
2019-03-22T13:32:55.204Z,2.13
2019-03-22T13:34:00.551Z,1.83
2019-03-22T13:35:06.651Z,2.13
2019-03-22T13:36:11.998Z,1.70
2019-03-22T13:37:17.439Z,2.00
2019-03-22T13:38:22.928Z,1.97
2019-03-22T13:39:28.145Z,1.80
2019-03-22T13:40:33.669Z,1.60
2019-03-22T13:41:39.018Z,1.80
2019-03-22T13:42:44.560Z,1.40
2019-03-22T13:43:49.778Z,1.60
2019-03-22T13:44:55.027Z,1.77
2019-03-22T13:46:00.484Z,1.57
2019-03-22T13:47:06.093Z,1.47
2019-03-22T13:48:11.579Z,1.93
2019-03-22T13:49:17.007Z,1.60
2019-03-22T13:50:22.515Z,1.93
2019-03-22T13:51:27.837Z,4.20
2019-03-22T13:52:33.229Z,3.00
2019-03-22T13:53:38.498Z,1.73
2019-03-22T13:54:43.843Z,1.70
2019-03-22T13:55:49.054Z,2.10
2019-03-22T13:56:57.109Z,1.83
2019-03-22T13:58:02.438Z,2.17
2019-03-22T13:59:07.822Z,2.07
2019-03-22T14:00:13.562Z,1.57
2019-03-22T14:01:18.845Z,1.60
2019-03-22T14:02:24.468Z,1.77
2019-03-22T14:03:29.939Z,1.60
2019-03-22T14:04:35.526Z,1.50
2019-03-22T14:05:41.296Z,1.93
2019-03-22T14:06:46.929Z,1.47
2019-03-22T14:07:52.454Z,1.27
2019-03-22T14:08:58.448Z,1.60
2019-03-22T14:10:04.255Z,1.40
2019-03-22T14:11:09.988Z,1.97
2019-03-22T14:12:15.893Z,1.50
2019-03-22T14:13:22.684Z,1.77
2019-03-22T14:14:28.346Z,1.40
2019-03-22T14:15:33.998Z,1.47
2019-03-22T14:16:40.058Z,1.63
2019-03-22T14:17:45.967Z,1.60
2019-03-22T14:18:51.706Z,1.50
2019-03-22T14:19:57.473Z,2.13
2019-03-22T14:21:03.219Z,2.17